Time;durP1;ratioP1;P1;durP2;ratioP2;P2;SDS_P1;SDS_P2;PMS_P1;PMS_P2;Temp;Humidity;BMP_temperature;BMP_pressure;BME280_temperature;BME280_humidity;BME280_pressure;Samples;Min_cycle;Max_cycle;Signal;HPM_P1;HPM_P2
2022/10/01 00:00:37;;;;;;;8.45;5.50;;;12.50;77.00;;;;;;5029441;28;20050;-76
2022/10/01 00:03:03;;;;;;;8.90;5.53;;;12.50;77.40;;;;;;5028796;28;20141;-75
2022/10/01 00:05:30;;;;;;;8.07;5.50;;;12.50;77.40;;;;;;5029656;28;20283;-76
2022/10/01 00:07:57;;;;;;;8.20;5.15;;;12.50;77.60;;;;;;5029379;28;20053;-76
2022/10/01 00:10:25;;;;;;;7.93;5.60;;;12.40;77.90;;;;;;5028787;28;20527;-76
2022/10/01 00:12:53;;;;;;;9.00;6.03;;;12.40;78.20;;;;;;5029004;28;20073;-76
2022/10/01 00:15:20;;;;;;;7.77;5.60;;;12.30;78.40;;;;;;5030357;28;20050;-75
2022/10/01 00:17:47;;;;;;;6.40;3.30;;;12.30;78.40;;;;;;5029152;28;20304;-76
2022/10/01 00:20:14;;;;;;;8.70;5.20;;;12.30;79.10;;;;;;5028965;28;20416;-76
2022/10/01 00:22:41;;;;;;;10.18;5.53;;;12.20;79.00;;;;;;5029008;28;20137;-76
2022/10/01 00:25:08;;;;;;;8.57;5.68;;;12.20;78.90;;;;;;5029002;28;20054;-76
2022/10/01 00:27:35;;;;;;;8.23;5.10;;;12.20;79.40;;;;;;5030532;28;20520;-76
2022/10/01 00:30:05;;;;;;;8.68;5.00;;;12.10;79.60;;;;;;5029991;28;20250;-76
2022/10/01 00:32:33;;;;;;;10.02;6.13;;;12.10;79.70;;;;;;5030588;28;20064;-76
2022/10/01 00:35:01;;;;;;;8.73;5.00;;;12.00;79.70;;;;;;5028969;28;20042;-76
2022/10/01 00:37:28;;;;;;;8.13;5.10;;;12.00;79.80;;;;;;5012521;28;20057;-76
2022/10/01 00:39:55;;;;;;;9.40;5.93;;;12.00;79.90;;;;;;5030126;28;20054;-76
2022/10/01 00:42:24;;;;;;;9.77;6.00;;;12.00;80.10;;;;;;5028730;28;20277;-76
2022/10/01 00:44:52;;;;;;;8.45;5.70;;;12.00;80.40;;;;;;5029227;28;20052;-76
2022/10/01 00:47:25;;;;;;;8.40;5.75;;;12.00;80.40;;;;;;5029186;28;20050;-76
2022/10/01 00:49:55;;;;;;;10.27;5.47;;;12.00;80.60;;;;;;5028842;28;20531;-76
2022/10/01 00:52:27;;;;;;;9.27;5.80;;;11.90;80.50;;;;;;5028800;28;20693;-76
2022/10/01 00:54:58;;;;;;;7.40;5.20;;;11.90;81.00;;;;;;5028771;28;20256;-76
2022/10/01 00:57:27;;;;;;;8.55;5.95;;;11.90;80.80;;;;;;5028851;28;20165;-76
2022/10/01 00:59:58;;;;;;;8.50;5.18;;;11.90;81.20;;;;;;5030006;28;20141;-76
2022/10/01 01:02:27;;;;;;;9.65;6.05;;;11.90;81.50;;;;;;5028508;28;20674;-76
2022/10/01 01:04:54;;;;;;;11.63;5.90;;;11.90;81.60;;;;;;5029985;28;20149;-76
2022/10/01 01:07:22;;;;;;;9.00;5.75;;;11.90;81.40;;;;;;5028884;28;20724;-75
2022/10/01 01:09:51;;;;;;;8.55;5.53;;;11.80;81.90;;;;;;5028223;28;20050;-75
2022/10/01 01:12:36;;;;;;;9.27;5.53;;;11.80;82.00;;;;;;5028455;28;20058;-75
2022/10/01 01:15:13;;;;;;;7.53;5.18;;;11.80;82.10;;;;;;5028612;28;20082;-75
2022/10/01 01:17:50;;;;;;;9.90;5.67;;;11.80;81.80;;;;;;5029914;28;20078;-75
2022/10/01 01:20:48;;;;;;;9.82;5.60;;;11.80;82.20;;;;;;5031632;28;20253;-75
2022/10/01 01:23:37;;;;;;;8.70;5.35;;;11.70;82.00;;;;;;5032080;28;20074;-75
2022/10/01 01:26:15;;;;;;;9.60;5.78;;;11.70;82.30;;;;;;5031761;28;20531;-75
2022/10/01 01:28:49;;;;;;;9.23;5.38;;;11.70;82.60;;;;;;5031789;28;20128;-75
2022/10/01 01:31:22;;;;;;;9.80;6.30;;;11.70;83.00;;;;;;5031852;28;20054;-76
2022/10/01 01:33:54;;;;;;;10.02;6.53;;;11.70;82.90;;;;;;5033054;28;20379;-76
2022/10/01 01:36:25;;;;;;;8.02;5.65;;;11.70;82.90;;;;;;5031396;28;20926;-76
2022/10/01 01:38:57;;;;;;;9.25;5.78;;;11.70;83.10;;;;;;5031271;28;20120;-75
2022/10/01 01:41:28;;;;;;;9.63;6.25;;;11.70;83.40;;;;;;5032053;28;20096;-75
2022/10/01 01:44:01;;;;;;;8.83;5.13;;;11.70;83.30;;;;;;5031604;28;20054;-75
2022/10/01 01:46:33;;;;;;;7.63;4.97;;;11.70;83.40;;;;;;5031255;28;20261;-75
2022/10/01 01:49:02;;;;;;;8.52;5.55;;;11.60;83.30;;;;;;5031460;28;20053;-75
2022/10/01 01:51:35;;;;;;;8.57;4.75;;;11.60;83.70;;;;;;5032682;28;20054;-75
2022/10/01 01:54:02;;;;;;;7.57;4.97;;;11.70;83.90;;;;;;5031483;28;20351;-75
2022/10/01 01:56:33;;;;;;;7.77;5.43;;;11.60;84.00;;;;;;5032565;28;20046;-75
2022/10/01 01:59:02;;;;;;;8.20;5.35;;;11.60;84.10;;;;;;5031535;28;20257;-76
2022/10/01 02:01:34;;;;;;;8.35;5.20;;;11.60;84.00;;;;;;5032741;28;20050;-75
2022/10/01 02:04:04;;;;;;;8.02;4.43;;;11.50;84.20;;;;;;5031125;28;20057;-75
2022/10/01 02:06:41;;;;;;;7.00;4.28;;;11.50;84.10;;;;;;5031347;28;20836;-75
2022/10/01 02:09:19;;;;;;;8.87;6.00;;;11.50;84.50;;;;;;5031213;28;20057;-76
2022/10/01 02:11:58;;;;;;;7.25;4.63;;;11.50;84.20;;;;;;5033031;28;20258;-75
2022/10/01 02:14:35;;;;;;;5.63;3.58;;;11.50;84.30;;;;;;5032251;28;20613;-75
2022/10/01 02:17:07;;;;;;;8.00;5.13;;;11.50;84.60;;;;;;5032297;28;20061;-75
2022/10/01 02:19:43;;;;;;;8.07;5.13;;;11.50;84.80;;;;;;5032018;28;20128;-75
2022/10/01 02:22:13;;;;;;;8.07;5.37;;;11.50;84.80;;;;;;5031201;28;20060;-75
2022/10/01 02:24:44;;;;;;;8.85;5.90;;;11.50;85.00;;;;;;5032045;28;20289;-76
2022/10/01 02:27:15;;;;;;;7.38;4.45;;;11.50;85.00;;;;;;5032145;28;20630;-75
2022/10/01 02:29:45;;;;;;;7.80;5.20;;;11.50;85.10;;;;;;5030616;28;20049;-76
2022/10/01 02:32:13;;;;;;;8.25;5.32;;;11.50;85.10;;;;;;5032011;28;20077;-76
2022/10/01 02:34:42;;;;;;;8.83;4.90;;;11.50;85.10;;;;;;5032445;28;20045;-75
2022/10/01 02:37:11;;;;;;;7.85;4.28;;;11.50;85.10;;;;;;5031939;28;20304;-75
2022/10/01 02:39:40;;;;;;;8.30;5.30;;;11.50;85.00;;;;;;5030408;28;20050;-75
2022/10/01 02:42:10;;;;;;;6.93;4.72;;;11.50;85.20;;;;;;5030475;28;20577;-75
2022/10/01 02:44:41;;;;;;;7.70;4.55;;;11.50;85.20;;;;;;5030463;28;20491;-75
2022/10/01 02:47:14;;;;;;;8.63;4.80;;;11.60;85.30;;;;;;5030781;28;20137;-76
2022/10/01 02:49:42;;;;;;;7.53;4.22;;;11.60;85.30;;;;;;5030360;28;20278;-76
2022/10/01 02:52:15;;;;;;;7.90;4.50;;;11.60;85.30;;;;;;5030642;28;20091;-75
2022/10/01 02:54:46;;;;;;;6.72;4.10;;;11.60;85.40;;;;;;5030698;28;20056;-75
2022/10/01 02:57:26;;;;;;;5.75;3.80;;;11.70;85.50;;;;;;5030641;28;20072;-76
2022/10/01 02:59:55;;;;;;;6.50;3.87;;;11.70;85.40;;;;;;5031796;28;20144;-75
2022/10/01 03:02:24;;;;;;;6.13;4.05;;;11.70;85.40;;;;;;5029803;28;20334;-76
2022/10/01 03:04:51;;;;;;;6.43;3.95;;;11.70;85.30;;;;;;5013858;28;20384;-75
2022/10/01 03:07:18;;;;;;;6.10;3.90;;;11.70;85.50;;;;;;5030148;28;20511;-75
2022/10/01 03:09:45;;;;;;;6.05;3.72;;;11.70;85.50;;;;;;5030248;28;20046;-75
2022/10/01 03:12:12;;;;;;;6.13;3.83;;;11.70;85.50;;;;;;5030716;28;20046;-76
2022/10/01 03:14:39;;;;;;;7.05;3.40;;;11.70;85.40;;;;;;5031357;28;20779;-75
2022/10/01 03:17:06;;;;;;;6.22;3.13;;;11.70;85.50;;;;;;5030222;28;20180;-75
2022/10/01 03:19:34;;;;;;;6.20;3.67;;;11.70;85.60;;;;;;5030231;28;20061;-75
2022/10/01 03:22:02;;;;;;;5.70;2.97;;;11.70;85.60;;;;;;5013569;28;20052;-75
2022/10/01 03:24:29;;;;;;;6.20;3.30;;;11.70;85.40;;;;;;5030209;28;20061;-75
2022/10/01 03:26:56;;;;;;;5.25;2.65;;;11.70;85.70;;;;;;5031789;28;20349;-75
2022/10/01 03:29:23;;;;;;;5.30;3.40;;;11.70;85.80;;;;;;5029744;28;20041;-75
2022/10/01 03:31:51;;;;;;;5.47;2.95;;;11.80;85.90;;;;;;5029776;28;20414;-75
2022/10/01 03:34:19;;;;;;;5.28;2.90;;;11.70;85.90;;;;;;5029747;28;20049;-75
2022/10/01 03:36:47;;;;;;;6.13;3.33;;;11.70;86.20;;;;;;5030157;28;20526;-75
2022/10/01 03:39:14;;;;;;;4.97;2.67;;;11.80;86.20;;;;;;5029916;28;20332;-75
2022/10/01 03:41:41;;;;;;;4.47;2.50;;;11.80;86.30;;;;;;5030829;28;20050;-76
2022/10/01 03:44:08;;;;;;;4.35;2.67;;;11.80;86.10;;;;;;5029806;28;20116;-76
2022/10/01 03:46:35;;;;;;;5.88;2.30;;;11.90;86.30;;;;;;5031012;28;20053;-75
2022/10/01 03:49:01;;;;;;;4.70;2.53;;;11.80;85.90;;;;;;5029725;28;20140;-76
2022/10/01 03:51:29;;;;;;;5.13;2.67;;;11.80;86.30;;;;;;5030962;28;20281;-75
2022/10/01 03:53:58;;;;;;;4.50;2.60;;;11.80;86.30;;;;;;5029712;28;20758;-76
2022/10/01 03:56:25;;;;;;;4.32;2.30;;;11.70;86.40;;;;;;5030606;28;20128;-75
2022/10/01 03:58:52;;;;;;;4.10;2.20;;;11.70;86.50;;;;;;5029547;28;20144;-75
2022/10/01 04:01:19;;;;;;;4.63;2.33;;;11.80;86.50;;;;;;5029456;28;20231;-75
2022/10/01 04:03:46;;;;;;;4.97;2.90;;;11.70;86.40;;;;;;5029176;28;20876;-75
2022/10/01 04:06:13;;;;;;;5.07;2.67;;;11.70;86.50;;;;;;5013129;28;20149;-75
2022/10/01 04:08:40;;;;;;;4.70;2.58;;;11.80;86.70;;;;;;5029186;28;20593;-75
2022/10/01 04:11:09;;;;;;;4.18;2.20;;;11.70;86.70;;;;;;5029089;28;20072;-76
2022/10/01 04:13:36;;;;;;;4.30;2.43;;;11.80;86.60;;;;;;5030427;28;20050;-76
2022/10/01 04:16:04;;;;;;;3.75;2.10;;;11.70;86.50;;;;;;5029269;28;20253;-76
2022/10/01 04:18:31;;;;;;;4.20;2.10;;;11.70;86.70;;;;;;5029605;28;20052;-76
2022/10/01 04:20:58;;;;;;;4.55;2.80;;;11.70;86.80;;;;;;5030477;28;20144;-76
2022/10/01 04:23:25;;;;;;;5.15;2.50;;;11.70;87.10;;;;;;5028911;28;20054;-76
2022/10/01 04:25:52;;;;;;;3.20;1.63;;;11.80;87.00;;;;;;5029766;28;20057;-76
2022/10/01 04:28:21;;;;;;;4.13;1.98;;;11.80;87.10;;;;;;5029110;28;20675;-76
2022/10/01 04:30:47;;;;;;;4.57;2.10;;;11.80;87.10;;;;;;5029371;28;20406;-76
2022/10/01 04:33:16;;;;;;;3.90;2.17;;;11.90;87.00;;;;;;5029175;28;20057;-76
2022/10/01 04:35:44;;;;;;;4.43;2.00;;;11.80;86.80;;;;;;5028741;28;20053;-76
2022/10/01 04:38:15;;;;;;;3.97;2.10;;;11.80;87.00;;;;;;5028920;28;20054;-76
2022/10/01 04:40:42;;;;;;;4.05;2.05;;;11.90;87.30;;;;;;5030283;28;20256;-76
2022/10/01 04:43:11;;;;;;;4.50;2.28;;;11.90;87.20;;;;;;5030902;28;20079;-76
2022/10/01 04:45:39;;;;;;;3.80;1.83;;;11.90;87.20;;;;;;5028841;28;20066;-76
2022/10/01 04:48:06;;;;;;;3.65;2.00;;;11.90;87.30;;;;;;5029248;28;20058;-76
2022/10/01 04:50:33;;;;;;;3.60;2.07;;;11.90;87.50;;;;;;5030111;28;20046;-76
2022/10/01 04:53:00;;;;;;;3.78;1.92;;;11.90;87.40;;;;;;5029199;28;20265;-75
2022/10/01 04:55:27;;;;;;;4.57;2.00;;;11.90;87.50;;;;;;5034018;28;20085;-75
2022/10/01 04:57:54;;;;;;;4.10;2.15;;;11.90;87.50;;;;;;5032430;28;20056;-76
2022/10/01 05:00:25;;;;;;;3.60;1.90;;;11.90;87.70;;;;;;5033332;28;20317;-76
2022/10/01 05:02:53;;;;;;;4.13;1.73;;;11.90;87.70;;;;;;5031900;28;20049;-75
2022/10/01 05:05:23;;;;;;;4.00;2.10;;;12.00;87.60;;;;;;5031892;28;20250;-75
2022/10/01 05:07:50;;;;;;;4.22;1.90;;;11.90;87.80;;;;;;5032256;28;20523;-75
2022/10/01 05:10:19;;;;;;;3.75;2.10;;;11.90;87.70;;;;;;5030557;28;20057;-75
2022/10/01 05:12:47;;;;;;;4.20;1.90;;;12.00;87.80;;;;;;4976980;28;20527;-76
2022/10/01 05:15:16;;;;;;;3.53;1.93;;;12.00;88.00;;;;;;5031021;28;20128;-75
2022/10/01 05:17:43;;;;;;;4.43;2.42;;;12.00;88.00;;;;;;5031145;28;20260;-76
2022/10/01 05:20:17;;;;;;;5.13;2.30;;;12.00;88.00;;;;;;5013382;28;20052;-75
2022/10/01 05:22:45;;;;;;;4.05;2.15;;;12.00;88.20;;;;;;5030130;28;20050;-75
2022/10/01 05:25:12;;;;;;;4.32;2.50;;;12.10;88.20;;;;;;5028677;28;20056;-75
2022/10/01 05:27:39;;;;;;;4.57;2.60;;;12.10;88.20;;;;;;5031887;28;20053;-75
2022/10/01 05:30:08;;;;;;;4.18;2.53;;;12.10;88.20;;;;;;5031214;28;20281;-75
2022/10/01 05:32:36;;;;;;;5.15;2.97;;;12.20;88.30;;;;;;5032783;28;20060;-76
2022/10/01 05:35:03;;;;;;;4.60;3.10;;;12.20;88.40;;;;;;5032771;28;20135;-76
2022/10/01 05:37:32;;;;;;;5.03;3.03;;;12.20;88.50;;;;;;5031263;28;20057;-75
2022/10/01 05:39:59;;;;;;;4.43;2.70;;;12.20;88.60;;;;;;5032642;28;20072;-76
2022/10/01 05:42:26;;;;;;;5.10;3.20;;;12.20;88.60;;;;;;5031343;28;20395;-76
2022/10/01 05:44:53;;;;;;;4.75;3.20;;;12.20;88.70;;;;;;5015252;28;20050;-76
2022/10/01 05:47:21;;;;;;;4.80;3.10;;;12.20;88.60;;;;;;5032810;28;20104;-76
2022/10/01 05:49:48;;;;;;;6.63;3.60;;;12.20;88.70;;;;;;5028307;28;20469;-76
2022/10/01 05:52:16;;;;;;;5.30;3.50;;;12.30;88.70;;;;;;5031442;28;20140;-75
2022/10/01 05:54:44;;;;;;;5.78;3.90;;;12.30;88.80;;;;;;5031724;28;20639;-75
2022/10/01 05:57:11;;;;;;;5.82;4.20;;;12.30;88.80;;;;;;5031719;28;20797;-75
2022/10/01 05:59:39;;;;;;;7.00;4.07;;;12.30;89.00;;;;;;5031506;28;20603;-75
2022/10/01 06:02:05;;;;;;;6.25;3.58;;;12.40;88.90;;;;;;5031387;28;20054;-76
2022/10/01 06:04:32;;;;;;;6.40;3.90;;;12.40;88.70;;;;;;5031246;28;20057;-76
2022/10/01 06:06:59;;;;;;;5.57;4.63;;;12.40;88.90;;;;;;5030949;28;20724;-76
2022/10/01 06:09:26;;;;;;;6.45;3.70;;;12.50;89.00;;;;;;5032339;28;20083;-75
2022/10/01 06:11:55;;;;;;;6.65;4.25;;;12.50;89.00;;;;;;5031471;28;20050;-75
2022/10/01 06:14:22;;;;;;;6.82;3.80;;;12.50;89.00;;;;;;5031385;28;20108;-75
2022/10/01 06:16:53;;;;;;;5.53;3.23;;;12.50;89.00;;;;;;5032610;28;20057;-76
2022/10/01 06:19:20;;;;;;;5.28;3.95;;;12.50;88.80;;;;;;5032593;28;20249;-76
2022/10/01 06:21:47;;;;;;;6.95;4.28;;;12.50;89.00;;;;;;5032317;28;20056;-76
2022/10/01 06:24:14;;;;;;;5.43;4.13;;;12.50;89.00;;;;;;5031734;28;20054;-76
2022/10/01 06:26:42;;;;;;;5.97;4.70;;;12.50;89.00;;;;;;5014766;28;20049;-76
2022/10/01 06:29:11;;;;;;;5.60;4.37;;;12.50;89.10;;;;;;5031195;28;20186;-76
2022/10/01 06:31:38;;;;;;;6.78;5.20;;;12.50;89.10;;;;;;5031206;28;20352;-76
2022/10/01 06:34:05;;;;;;;6.95;4.45;;;12.50;89.10;;;;;;5032722;28;20672;-76
2022/10/01 06:36:33;;;;;;;7.05;4.95;;;12.60;89.20;;;;;;5031294;28;20457;-76
2022/10/01 06:39:00;;;;;;;7.72;5.47;;;12.60;89.40;;;;;;5030392;28;20803;-76
2022/10/01 06:41:28;;;;;;;7.57;5.10;;;12.70;89.50;;;;;;5032691;28;20078;-76
2022/10/01 06:43:55;;;;;;;6.43;4.53;;;12.70;89.50;;;;;;5031329;28;20252;-76
2022/10/01 06:46:23;;;;;;;8.48;6.00;;;12.70;89.30;;;;;;5032915;28;20053;-76
2022/10/01 06:48:50;;;;;;;7.18;5.40;;;12.70;89.50;;;;;;5032335;28;20197;-76
2022/10/01 06:52:47;;;;;;;7.85;6.00;;;12.80;89.50;;;;;;5014199;28;20148;-76
2022/10/01 06:54:04;;;;;;;6.70;5.17;;;12.80;89.60;;;;;;5030636;28;20057;-76
2022/10/01 06:56:32;;;;;;;9.38;5.53;;;12.80;89.40;;;;;;5030817;28;20368;-76
2022/10/01 06:59:01;;;;;;;9.10;5.90;;;12.80;89.40;;;;;;5031401;28;20140;-76
2022/10/01 07:01:31;;;;;;;5.30;3.47;;;12.80;89.50;;;;;;5031492;28;20058;-75
2022/10/01 07:03:58;;;;;;;9.98;5.13;;;12.90;89.60;;;;;;5031468;28;20100;-74
2022/10/01 07:06:25;;;;;;;8.40;5.47;;;12.90;89.40;;;;;;5027958;28;20108;-74
2022/10/01 07:08:52;;;;;;;7.90;4.78;;;12.90;89.40;;;;;;5028334;28;21290;-74
2022/10/01 07:11:19;;;;;;;7.72;4.97;;;12.90;89.70;;;;;;5028721;28;20547;-74
2022/10/01 07:13:47;;;;;;;6.47;4.60;;;12.90;89.70;;;;;;5029978;28;20522;-74
2022/10/01 07:16:14;;;;;;;8.05;5.18;;;13.00;89.70;;;;;;5029013;28;20056;-74
2022/10/01 07:18:43;;;;;;;8.47;5.53;;;13.00;89.70;;;;;;5028158;28;20089;-75
2022/10/01 07:21:10;;;;;;;5.68;3.25;;;13.00;89.80;;;;;;5028378;28;20265;-74
2022/10/01 07:23:37;;;;;;;7.07;5.05;;;13.00;89.70;;;;;;5031399;28;20133;-74
2022/10/01 07:26:05;;;;;;;7.80;4.60;;;13.10;89.70;;;;;;5029731;28;20050;-74
2022/10/01 07:28:32;;;;;;;7.90;5.05;;;13.10;89.70;;;;;;5030166;28;20046;-74
2022/10/01 07:31:00;;;;;;;7.97;4.10;;;13.10;89.70;;;;;;5031642;28;20050;-74
2022/10/01 07:33:28;;;;;;;8.75;4.78;;;13.10;89.70;;;;;;5013750;28;20337;-74
2022/10/01 07:36:00;;;;;;;5.43;3.40;;;13.10;89.60;;;;;;5031147;28;20723;-74
2022/10/01 07:38:27;;;;;;;7.85;4.78;;;13.10;89.60;;;;;;5029192;28;20061;-74
2022/10/01 07:40:54;;;;;;;9.55;5.05;;;13.10;89.50;;;;;;5028864;28;20113;-74
2022/10/01 07:43:21;;;;;;;8.20;4.23;;;13.20;89.70;;;;;;5030844;28;20049;-74
2022/10/01 07:45:51;;;;;;;5.45;3.60;;;13.30;89.80;;;;;;5031066;28;20260;-74
2022/10/01 07:48:18;;;;;;;10.48;4.57;;;13.30;89.80;;;;;;5028446;28;20121;-74
2022/10/01 07:50:46;;;;;;;8.23;4.53;;;13.30;90.00;;;;;;5029556;28;20084;-75
2022/10/01 07:53:39;;;;;;;7.80;4.40;;;13.30;90.00;;;;;;5031528;28;20104;-75
2022/10/01 07:56:06;;;;;;;9.73;3.97;;;13.30;90.00;;;;;;5012898;28;20074;-74
2022/10/01 07:58:34;;;;;;;6.55;4.03;;;13.30;90.00;;;;;;5029402;28;20745;-75
2022/10/01 08:01:03;;;;;;;9.77;4.28;;;13.40;90.10;;;;;;5029619;28;20054;-75
2022/10/01 08:03:30;;;;;;;9.13;4.68;;;13.50;90.00;;;;;;5028591;28;20523;-75
2022/10/01 08:05:57;;;;;;;11.02;4.43;;;13.50;90.10;;;;;;5030371;28;20533;-75
2022/10/01 08:08:24;;;;;;;8.43;4.00;;;13.50;90.10;;;;;;5029592;28;20129;-75
2022/10/01 08:10:52;;;;;;;7.07;3.67;;;13.50;90.10;;;;;;5029809;28;20359;-75
2022/10/01 08:13:23;;;;;;;8.80;3.60;;;13.50;90.30;;;;;;5028035;28;20435;-75
2022/10/01 08:15:52;;;;;;;7.13;3.55;;;13.60;90.50;;;;;;5028012;28;20045;-75
2022/10/01 08:18:19;;;;;;;7.10;3.17;;;13.60;90.40;;;;;;5030119;28;20058;-75
2022/10/01 08:20:47;;;;;;;10.97;3.80;;;13.70;90.50;;;;;;5028197;28;20081;-75
2022/10/01 08:23:15;;;;;;;8.15;3.10;;;13.80;90.70;;;;;;5029415;28;20325;-76
2022/10/01 08:25:44;;;;;;;6.68;2.72;;;13.90;90.70;;;;;;5027623;28;20042;-75
2022/10/01 08:28:12;;;;;;;9.25;3.63;;;13.90;90.70;;;;;;5028293;28;20121;-75
2022/10/01 08:30:41;;;;;;;5.82;1.42;;;13.90;90.60;;;;;;5028050;28;20054;-74
2022/10/01 08:33:11;;;;;;;8.70;3.10;;;14.00;90.60;;;;;;5026822;28;20046;-74
2022/10/01 08:35:39;;;;;;;5.38;1.85;;;14.00;90.50;;;;;;5027094;28;20336;-74
2022/10/01 08:38:08;;;;;;;12.18;3.33;;;14.10;90.30;;;;;;5027392;28;20054;-74
2022/10/01 08:40:41;;;;;;;7.57;2.58;;;14.20;90.20;;;;;;5028634;28;20532;-74
2022/10/01 08:43:22;;;;;;;8.68;2.60;;;14.20;90.10;;;;;;5012614;28;20046;-74
2022/10/01 08:45:52;;;;;;;9.63;2.40;;;14.30;90.00;;;;;;5023145;28;20053;-74
2022/10/01 08:48:31;;;;;;;9.43;2.05;;;14.40;90.00;;;;;;5028297;28;20304;-74
2022/10/01 08:51:03;;;;;;;8.77;2.13;;;14.40;89.70;;;;;;5028187;28;20049;-74
2022/10/01 08:53:35;;;;;;;11.65;2.03;;;14.50;89.60;;;;;;5028721;28;20053;-74
2022/10/01 08:56:04;;;;;;;8.45;2.05;;;14.60;89.30;;;;;;5028931;28;20543;-74
2022/10/01 08:58:44;;;;;;;8.03;2.10;;;14.60;88.90;;;;;;5028409;28;20074;-74
2022/10/01 09:01:11;;;;;;;8.10;2.30;;;14.70;88.70;;;;;;5028681;28;20271;-75
2022/10/01 09:03:39;;;;;;;11.23;2.08;;;14.70;88.20;;;;;;5028535;28;20046;-74
2022/10/01 09:06:18;;;;;;;8.70;2.00;;;14.70;87.80;;;;;;5029890;28;20469;-75
2022/10/01 09:09:09;;;;;;;6.47;1.52;;;14.70;87.60;;;;;;5029684;28;20060;-75
2022/10/01 09:11:49;;;;;;;5.60;1.00;;;14.70;87.50;;;;;;5028527;28;20089;-74
2022/10/01 09:14:50;;;;;;;4.45;0.90;;;14.70;87.30;;;;;;5029867;28;20268;-75
2022/10/01 09:17:29;;;;;;;11.60;1.75;;;14.70;87.00;;;;;;5026655;28;20056;-74
2022/10/01 09:20:03;;;;;;;7.65;1.30;;;14.70;87.00;;;;;;5025910;28;20057;-74
2022/10/01 09:22:39;;;;;;;6.25;1.40;;;14.70;87.00;;;;;;5029674;28;20049;-74
2022/10/01 09:25:14;;;;;;;4.37;1.00;;;14.70;86.80;;;;;;5029372;28;20064;-75
2022/10/01 09:27:41;;;;;;;5.57;0.93;;;14.80;86.30;;;;;;5029691;28;20300;-74
2022/10/01 09:30:16;;;;;;;5.18;0.63;;;14.80;85.30;;;;;;5028881;28;20133;-74
2022/10/01 09:32:46;;;;;;;5.57;1.00;;;14.80;85.20;;;;;;5027851;28;20652;-74
2022/10/01 09:35:22;;;;;;;5.63;0.70;;;14.80;84.50;;;;;;5027391;28;20065;-74
2022/10/01 09:37:55;;;;;;;4.37;0.47;;;14.80;84.30;;;;;;5029251;28;20149;-74
2022/10/01 09:40:29;;;;;;;10.18;0.80;;;14.90;83.70;;;;;;5030578;28;20929;-75
2022/10/01 09:42:56;;;;;;;4.07;0.65;;;14.90;83.10;;;;;;5032323;28;20062;-75
2022/10/01 09:45:25;;;;;;;4.50;0.70;;;15.00;82.40;;;;;;5030545;28;20050;-75
2022/10/01 09:47:57;;;;;;;4.43;0.40;;;15.00;81.70;;;;;;5029004;28;20041;-75
2022/10/01 09:50:30;;;;;;;5.60;0.67;;;15.00;80.90;;;;;;5030518;28;20084;-75
2022/10/01 09:52:59;;;;;;;5.22;0.60;;;15.00;80.00;;;;;;5030455;28;20288;-75
2022/10/01 09:55:32;;;;;;;5.47;0.60;;;15.00;79.90;;;;;;5030812;28;20049;-75
2022/10/01 09:58:04;;;;;;;3.90;0.60;;;15.00;79.70;;;;;;5032129;28;20064;-75
2022/10/01 10:00:33;;;;;;;5.18;0.68;;;15.00;80.00;;;;;;5030550;28;20050;-75
2022/10/01 10:03:00;;;;;;;3.90;0.57;;;14.90;79.80;;;;;;5030504;28;20050;-75
2022/10/01 10:05:29;;;;;;;3.83;0.40;;;14.90;80.10;;;;;;5030727;28;20762;-75
2022/10/01 10:08:00;;;;;;;2.22;0.30;;;14.80;80.50;;;;;;5030552;28;20046;-75
2022/10/01 10:10:34;;;;;;;3.63;0.57;;;14.70;81.00;;;;;;5030098;28;20057;-75
2022/10/01 10:13:04;;;;;;;4.82;0.70;;;14.60;81.30;;;;;;5030829;28;20066;-75
2022/10/01 10:15:32;;;;;;;3.23;0.30;;;14.50;82.20;;;;;;5031626;28;20058;-75
2022/10/01 10:18:06;;;;;;;9.30;1.02;;;14.50;82.60;;;;;;5026213;28;20740;-75
2022/10/01 10:20:38;;;;;;;5.20;0.60;;;14.50;83.20;;;;;;5031969;28;20046;-75
2022/10/01 10:23:13;;;;;;;5.03;0.65;;;14.50;83.40;;;;;;5028921;28;20135;-75
2022/10/01 10:25:40;;;;;;;5.72;0.60;;;14.50;83.70;;;;;;5029522;28;20056;-75
2022/10/01 10:28:19;;;;;;;5.53;0.80;;;14.50;83.30;;;;;;5029270;28;20054;-75
2022/10/01 10:30:48;;;;;;;4.72;0.90;;;14.50;83.60;;;;;;5030052;28;20254;-75
2022/10/01 10:33:15;;;;;;;4.60;0.80;;;14.60;83.90;;;;;;5028957;28;20528;-75
2022/10/01 10:35:43;;;;;;;4.60;0.85;;;14.60;84.50;;;;;;5031444;28;20058;-75
2022/10/01 10:38:17;;;;;;;5.15;0.93;;;14.60;84.30;;;;;;5029103;28;20057;-75
2022/10/01 10:40:45;;;;;;;5.87;0.80;;;14.60;84.30;;;;;;5031030;28;20050;-75
2022/10/01 10:43:21;;;;;;;7.35;1.00;;;14.70;84.30;;;;;;5029569;28;20332;-75
2022/10/01 10:45:54;;;;;;;4.72;0.70;;;14.70;84.70;;;;;;5030198;28;20046;-76
2022/10/01 10:48:23;;;;;;;7.13;1.05;;;14.80;84.40;;;;;;5028238;28;20049;-76
2022/10/01 10:50:59;;;;;;;4.22;0.70;;;14.80;84.40;;;;;;5026908;28;20061;-75
2022/10/01 10:53:28;;;;;;;3.13;0.67;;;14.80;82.80;;;;;;5028522;28;20447;-75
2022/10/01 10:55:58;;;;;;;2.60;0.40;;;14.70;82.50;;;;;;5028070;28;20273;-75
2022/10/01 10:58:26;;;;;;;4.85;0.45;;;14.70;82.50;;;;;;5029988;28;20615;-75
2022/10/01 11:00:57;;;;;;;4.20;0.45;;;14.50;82.20;;;;;;5028300;28;20053;-75
2022/10/01 11:03:26;;;;;;;3.40;0.52;;;14.50;82.50;;;;;;5029330;28;20587;-75
2022/10/01 11:05:55;;;;;;;4.53;0.50;;;14.40;82.20;;;;;;5031041;28;20085;-75
2022/10/01 11:08:24;;;;;;;5.00;0.40;;;14.30;82.20;;;;;;5029484;28;20253;-75
2022/10/01 11:11:03;;;;;;;4.78;0.70;;;14.20;82.60;;;;;;5031132;28;20155;-75
2022/10/01 11:13:44;;;;;;;5.63;0.73;;;14.10;83.00;;;;;;5023267;28;20409;-75
2022/10/01 11:16:35;;;;;;;4.40;0.60;;;14.00;83.70;;;;;;5016355;28;20148;-75
2022/10/01 11:19:17;;;;;;;4.73;0.70;;;14.00;84.10;;;;;;4992808;28;20582;-76
2022/10/01 11:22:16;;;;;;;1.88;0.40;;;14.00;84.40;;;;;;5008251;28;20263;-75
2022/10/01 11:25:17;;;;;;;4.53;0.70;;;14.00;84.30;;;;;;5008298;28;20525;-75
2022/10/01 11:27:52;;;;;;;3.83;0.60;;;13.90;84.50;;;;;;5008016;28;20049;-75
2022/10/01 11:30:23;;;;;;;3.72;0.35;;;13.90;85.20;;;;;;5006017;28;20122;-75
2022/10/01 11:33:02;;;;;;;3.50;0.47;;;13.90;85.20;;;;;;5008656;28;20058;-75
2022/10/01 11:35:54;;;;;;;4.65;0.60;;;13.90;85.00;;;;;;5009610;28;20278;-75
2022/10/01 11:38:38;;;;;;;5.80;0.85;;;13.90;85.50;;;;;;5005522;28;20061;-75
2022/10/01 11:41:17;;;;;;;3.92;0.40;;;13.90;86.60;;;;;;4987151;28;20062;-75
2022/10/01 11:43:51;;;;;;;3.45;0.70;;;13.90;87.10;;;;;;5006595;28;20042;-75
2022/10/01 11:46:32;;;;;;;3.67;0.70;;;14.00;86.60;;;;;;5009182;28;20054;-76
2022/10/01 11:49:09;;;;;;;4.65;1.25;;;14.10;86.20;;;;;;5005731;28;20266;-75
2022/10/01 11:51:42;;;;;;;8.27;1.05;;;14.10;86.20;;;;;;5010218;28;20058;-75
2022/10/01 11:54:14;;;;;;;4.88;0.70;;;14.20;86.10;;;;;;5010991;28;20508;-75
2022/10/01 11:59:38;;;;;;;3.80;0.70;;;14.40;86.10;;;;;;5011022;28;20534;-76
2022/10/01 12:02:15;;;;;;;4.55;0.68;;;14.50;86.00;;;;;;5006478;28;20830;-75
2022/10/01 12:04:49;;;;;;;7.10;0.90;;;14.60;85.50;;;;;;5007496;28;20133;-75
2022/10/01 12:07:25;;;;;;;4.28;0.60;;;14.70;85.70;;;;;;5006847;28;20054;-75
2022/10/01 12:10:00;;;;;;;7.78;1.38;;;14.80;85.00;;;;;;5007342;28;20129;-75
2022/10/01 12:12:35;;;;;;;9.00;1.17;;;14.90;85.10;;;;;;5008433;28;20054;-74
2022/10/01 12:15:10;;;;;;;7.45;1.40;;;15.00;85.20;;;;;;5006379;28;20257;-75
2022/10/01 12:17:43;;;;;;;4.68;0.93;;;15.00;84.90;;;;;;5007189;28;20133;-75
2022/10/01 12:20:20;;;;;;;6.30;0.82;;;15.10;83.30;;;;;;5004524;28;20060;-75
2022/10/01 12:22:49;;;;;;;8.82;1.55;;;15.20;83.40;;;;;;4987643;28;21445;-75
2022/10/01 12:25:17;;;;;;;8.23;1.00;;;15.20;83.00;;;;;;4989385;28;20141;-73
2022/10/01 12:27:58;;;;;;;8.60;1.40;;;15.20;82.90;;;;;;5004628;28;20381;-75
2022/10/01 12:30:31;;;;;;;8.80;1.42;;;15.20;83.00;;;;;;5004637;28;20157;-75
2022/10/01 12:33:14;;;;;;;7.90;1.30;;;15.20;83.00;;;;;;5004691;28;20496;-75
2022/10/01 12:35:54;;;;;;;6.15;0.98;;;15.10;83.00;;;;;;5005826;28;20590;-75
2022/10/01 12:38:49;;;;;;;5.70;0.90;;;15.00;83.20;;;;;;5007289;28;20061;-76
2022/10/01 12:41:29;;;;;;;5.82;0.60;;;15.00;83.60;;;;;;5007239;28;20262;-75
2022/10/01 12:44:13;;;;;;;6.00;1.25;;;15.00;84.00;;;;;;5005979;28;20548;-76
2022/10/01 12:46:46;;;;;;;7.45;1.20;;;15.00;83.80;;;;;;5006859;28;20058;-75
2022/10/01 12:49:26;;;;;;;9.82;1.75;;;15.00;83.40;;;;;;5004005;28;20050;-75
2022/10/01 12:52:03;;;;;;;4.43;0.80;;;14.90;83.00;;;;;;5005561;28;20513;-75
2022/10/01 12:54:46;;;;;;;7.35;1.00;;;14.90;82.00;;;;;;5007009;28;20262;-75
2022/10/01 12:57:25;;;;;;;6.63;0.95;;;14.90;82.00;;;;;;5006839;28;20082;-75
2022/10/01 13:00:06;;;;;;;6.90;1.45;;;14.90;81.60;;;;;;5004568;28;20057;-75
2022/10/01 13:03:05;;;;;;;8.45;1.20;;;14.90;81.90;;;;;;4967115;28;1075693;-75
2022/10/01 13:05:39;;;;;;;8.53;1.63;;;14.90;81.50;;;;;;5006333;28;20592;-75
2022/10/01 13:08:21;;;;;;;5.15;0.75;;;14.90;81.10;;;;;;5008091;28;20965;-75